sensor_id;sensor_type;location;lat;lon;timestamp;P1;durP1;ratioP1;P2;durP2;ratioP2
50671;SDS011;46021;55.882;37.654;2023-08-30T00:01:11;6.13;;;4.15;;
50671;SDS011;46021;55.882;37.654;2023-08-30T00:03:38;8.43;;;4.30;;
50671;SDS011;46021;55.882;37.654;2023-08-30T00:06:05;5.43;;;3.90;;
50671;SDS011;46021;55.882;37.654;2023-08-30T00:08:33;5.75;;;3.72;;
50671;SDS011;46021;55.882;37.654;2023-08-30T00:11:00;5.22;;;3.85;;
50671;SDS011;46021;55.882;37.654;2023-08-30T00:15:57;7.07;;;3.92;;
50671;SDS011;46021;55.882;37.654;2023-08-30T00:18:24;6.23;;;3.87;;
50671;SDS011;46021;55.882;37.654;2023-08-30T00:20:51;7.15;;;4.28;;
50671;SDS011;46021;55.882;37.654;2023-08-30T00:23:18;6.82;;;4.53;;
50671;SDS011;46021;55.882;37.654;2023-08-30T00:25:46;7.07;;;4.60;;
50671;SDS011;46021;55.882;37.654;2023-08-30T00:28:13;7.10;;;4.30;;
50671;SDS011;46021;55.882;37.654;2023-08-30T00:30:41;7.10;;;4.97;;
50671;SDS011;46021;55.882;37.654;2023-08-30T00:33:08;6.50;;;3.95;;
50671;SDS011;46021;55.882;37.654;2023-08-30T00:35:35;5.70;;;3.90;;
50671;SDS011;46021;55.882;37.654;2023-08-30T00:38:02;6.80;;;4.65;;
50671;SDS011;46021;55.882;37.654;2023-08-30T00:40:37;5.95;;;3.75;;
50671;SDS011;46021;55.882;37.654;2023-08-30T00:43:04;5.10;;;3.35;;
50671;SDS011;46021;55.882;37.654;2023-08-30T00:45:31;6.40;;;4.00;;
50671;SDS011;46021;55.882;37.654;2023-08-30T00:48:00;4.20;;;3.28;;
50671;SDS011;46021;55.882;37.654;2023-08-30T00:50:27;6.05;;;3.72;;
50671;SDS011;46021;55.882;37.654;2023-08-30T00:52:55;6.75;;;4.15;;
50671;SDS011;46021;55.882;37.654;2023-08-30T00:55:22;6.18;;;3.83;;
50671;SDS011;46021;55.882;37.654;2023-08-30T00:57:49;4.53;;;3.38;;
50671;SDS011;46021;55.882;37.654;2023-08-30T01:00:16;4.90;;;3.67;;
50671;SDS011;46021;55.882;37.654;2023-08-30T01:02:43;4.33;;;3.10;;
50671;SDS011;46021;55.882;37.654;2023-08-30T01:05:13;5.25;;;3.83;;
50671;SDS011;46021;55.882;37.654;2023-08-30T01:07:42;4.93;;;3.90;;
50671;SDS011;46021;55.882;37.654;2023-08-30T01:10:09;5.13;;;3.63;;
50671;SDS011;46021;55.882;37.654;2023-08-30T01:12:37;6.18;;;3.80;;
50671;SDS011;46021;55.882;37.654;2023-08-30T01:15:08;4.95;;;3.28;;
50671;SDS011;46021;55.882;37.654;2023-08-30T01:17:39;5.30;;;3.58;;
50671;SDS011;46021;55.882;37.654;2023-08-30T01:20:09;5.47;;;3.88;;
50671;SDS011;46021;55.882;37.654;2023-08-30T01:22:45;5.40;;;3.60;;
50671;SDS011;46021;55.882;37.654;2023-08-30T01:25:23;6.35;;;3.83;;
50671;SDS011;46021;55.882;37.654;2023-08-30T01:28:00;6.13;;;4.07;;
50671;SDS011;46021;55.882;37.654;2023-08-30T01:30:31;5.57;;;3.65;;
50671;SDS011;46021;55.882;37.654;2023-08-30T01:33:00;6.00;;;3.90;;
50671;SDS011;46021;55.882;37.654;2023-08-30T01:35:29;5.63;;;3.85;;
50671;SDS011;46021;55.882;37.654;2023-08-30T01:38:01;7.15;;;4.13;;
50671;SDS011;46021;55.882;37.654;2023-08-30T01:40:30;8.73;;;4.43;;
50671;SDS011;46021;55.882;37.654;2023-08-30T01:43:03;6.97;;;4.63;;
50671;SDS011;46021;55.882;37.654;2023-08-30T01:45:35;6.95;;;4.60;;
50671;SDS011;46021;55.882;37.654;2023-08-30T01:48:07;6.78;;;4.38;;
50671;SDS011;46021;55.882;37.654;2023-08-30T01:50:37;6.47;;;4.50;;
50671;SDS011;46021;55.882;37.654;2023-08-30T01:53:06;8.25;;;5.03;;
50671;SDS011;46021;55.882;37.654;2023-08-30T01:55:35;8.20;;;4.90;;
50671;SDS011;46021;55.882;37.654;2023-08-30T01:58:05;7.55;;;4.78;;
50671;SDS011;46021;55.882;37.654;2023-08-30T02:00:33;7.78;;;4.40;;
50671;SDS011;46021;55.882;37.654;2023-08-30T02:05:33;6.82;;;4.40;;
50671;SDS011;46021;55.882;37.654;2023-08-30T02:08:04;6.53;;;4.10;;
50671;SDS011;46021;55.882;37.654;2023-08-30T02:10:35;7.38;;;4.18;;
50671;SDS011;46021;55.882;37.654;2023-08-30T02:13:05;6.95;;;4.40;;
50671;SDS011;46021;55.882;37.654;2023-08-30T02:15:33;9.25;;;4.78;;
50671;SDS011;46021;55.882;37.654;2023-08-30T02:18:01;8.70;;;5.28;;
50671;SDS011;46021;55.882;37.654;2023-08-30T02:20:32;7.22;;;4.72;;
50671;SDS011;46021;55.882;37.654;2023-08-30T02:22:59;5.95;;;3.83;;
50671;SDS011;46021;55.882;37.654;2023-08-30T02:25:27;5.43;;;3.90;;
50671;SDS011;46021;55.882;37.654;2023-08-30T02:27:54;6.32;;;4.60;;
50671;SDS011;46021;55.882;37.654;2023-08-30T02:30:23;6.18;;;4.25;;
50671;SDS011;46021;55.882;37.654;2023-08-30T02:32:51;7.47;;;5.25;;
50671;SDS011;46021;55.882;37.654;2023-08-30T02:35:18;8.40;;;4.90;;
50671;SDS011;46021;55.882;37.654;2023-08-30T02:37:45;7.30;;;4.50;;
50671;SDS011;46021;55.882;37.654;2023-08-30T02:40:14;6.78;;;4.68;;
50671;SDS011;46021;55.882;37.654;2023-08-30T02:42:41;7.05;;;4.65;;
50671;SDS011;46021;55.882;37.654;2023-08-30T02:45:08;10.87;;;4.80;;
50671;SDS011;46021;55.882;37.654;2023-08-30T02:50:04;10.30;;;5.30;;
50671;SDS011;46021;55.882;37.654;2023-08-30T02:52:33;7.55;;;4.90;;
50671;SDS011;46021;55.882;37.654;2023-08-30T02:55:00;7.07;;;4.43;;
50671;SDS011;46021;55.882;37.654;2023-08-30T02:57:29;6.65;;;4.70;;
50671;SDS011;46021;55.882;37.654;2023-08-30T02:59:56;7.43;;;4.63;;
50671;SDS011;46021;55.882;37.654;2023-08-30T03:02:23;8.68;;;4.55;;
50671;SDS011;46021;55.882;37.654;2023-08-30T03:04:52;7.47;;;4.57;;
50671;SDS011;46021;55.882;37.654;2023-08-30T03:07:20;9.18;;;5.30;;
50671;SDS011;46021;55.882;37.654;2023-08-30T03:09:51;9.03;;;5.13;;
50671;SDS011;46021;55.882;37.654;2023-08-30T03:12:19;8.50;;;5.57;;
50671;SDS011;46021;55.882;37.654;2023-08-30T03:14:47;8.82;;;5.40;;
50671;SDS011;46021;55.882;37.654;2023-08-30T03:17:14;8.50;;;4.75;;
50671;SDS011;46021;55.882;37.654;2023-08-30T03:19:42;8.43;;;5.15;;
50671;SDS011;46021;55.882;37.654;2023-08-30T03:22:10;8.07;;;5.63;;
50671;SDS011;46021;55.882;37.654;2023-08-30T03:24:37;9.05;;;5.68;;
50671;SDS011;46021;55.882;37.654;2023-08-30T03:27:04;6.50;;;4.63;;
50671;SDS011;46021;55.882;37.654;2023-08-30T03:29:32;8.82;;;5.43;;
50671;SDS011;46021;55.882;37.654;2023-08-30T03:31:59;7.18;;;4.85;;
50671;SDS011;46021;55.882;37.654;2023-08-30T03:34:26;7.22;;;4.93;;
50671;SDS011;46021;55.882;37.654;2023-08-30T03:36:53;6.47;;;4.33;;
50671;SDS011;46021;55.882;37.654;2023-08-30T03:39:21;6.35;;;4.25;;
50671;SDS011;46021;55.882;37.654;2023-08-30T03:41:49;6.88;;;4.75;;
50671;SDS011;46021;55.882;37.654;2023-08-30T03:44:17;5.95;;;3.90;;
50671;SDS011;46021;55.882;37.654;2023-08-30T03:46:45;7.07;;;4.53;;
50671;SDS011;46021;55.882;37.654;2023-08-30T03:49:12;4.95;;;3.95;;
50671;SDS011;46021;55.882;37.654;2023-08-30T03:51:39;6.65;;;3.88;;
50671;SDS011;46021;55.882;37.654;2023-08-30T03:54:06;5.50;;;3.50;;
50671;SDS011;46021;55.882;37.654;2023-08-30T03:56:40;5.22;;;3.30;;
50671;SDS011;46021;55.882;37.654;2023-08-30T03:59:07;6.10;;;3.63;;
50671;SDS011;46021;55.882;37.654;2023-08-30T04:01:34;6.00;;;3.50;;
50671;SDS011;46021;55.882;37.654;2023-08-30T04:04:01;4.93;;;3.25;;
50671;SDS011;46021;55.882;37.654;2023-08-30T04:06:28;5.35;;;3.45;;
50671;SDS011;46021;55.882;37.654;2023-08-30T04:08:55;5.63;;;3.50;;
50671;SDS011;46021;55.882;37.654;2023-08-30T04:11:22;7.57;;;3.55;;
50671;SDS011;46021;55.882;37.654;2023-08-30T04:13:51;5.45;;;2.90;;
50671;SDS011;46021;55.882;37.654;2023-08-30T04:16:18;5.70;;;3.38;;
50671;SDS011;46021;55.882;37.654;2023-08-30T04:18:46;4.60;;;3.10;;
50671;SDS011;46021;55.882;37.654;2023-08-30T04:21:13;4.70;;;3.00;;
50671;SDS011;46021;55.882;37.654;2023-08-30T04:23:40;4.07;;;2.80;;
50671;SDS011;46021;55.882;37.654;2023-08-30T04:26:07;12.20;;;7.38;;
50671;SDS011;46021;55.882;37.654;2023-08-30T04:28:34;9.68;;;3.13;;
50671;SDS011;46021;55.882;37.654;2023-08-30T04:31:02;4.90;;;2.88;;
50671;SDS011;46021;55.882;37.654;2023-08-30T04:33:29;6.88;;;3.00;;
50671;SDS011;46021;55.882;37.654;2023-08-30T04:35:56;6.50;;;3.23;;
50671;SDS011;46021;55.882;37.654;2023-08-30T04:38:26;6.07;;;3.97;;
50671;SDS011;46021;55.882;37.654;2023-08-30T04:40:56;6.88;;;3.30;;
50671;SDS011;46021;55.882;37.654;2023-08-30T04:43:25;4.45;;;2.80;;
50671;SDS011;46021;55.882;37.654;2023-08-30T04:45:53;4.03;;;2.75;;
50671;SDS011;46021;55.882;37.654;2023-08-30T04:48:23;5.57;;;3.10;;
50671;SDS011;46021;55.882;37.654;2023-08-30T04:50:57;4.22;;;2.72;;
50671;SDS011;46021;55.882;37.654;2023-08-30T04:53:25;4.13;;;2.40;;
50671;SDS011;46021;55.882;37.654;2023-08-30T04:55:52;5.10;;;3.00;;
50671;SDS011;46021;55.882;37.654;2023-08-30T04:58:19;7.43;;;3.30;;
50671;SDS011;46021;55.882;37.654;2023-08-30T05:00:46;5.35;;;3.15;;
50671;SDS011;46021;55.882;37.654;2023-08-30T05:03:14;4.57;;;3.08;;
50671;SDS011;46021;55.882;37.654;2023-08-30T05:05:45;4.38;;;2.90;;
50671;SDS011;46021;55.882;37.654;2023-08-30T05:08:14;5.40;;;2.90;;
50671;SDS011;46021;55.882;37.654;2023-08-30T05:10:41;3.72;;;2.75;;
50671;SDS011;46021;55.882;37.654;2023-08-30T05:13:09;6.20;;;3.10;;
50671;SDS011;46021;55.882;37.654;2023-08-30T05:15:37;4.50;;;3.05;;
50671;SDS011;46021;55.882;37.654;2023-08-30T05:18:04;6.60;;;3.30;;
50671;SDS011;46021;55.882;37.654;2023-08-30T05:20:31;8.88;;;3.00;;
50671;SDS011;46021;55.882;37.654;2023-08-30T05:22:59;4.63;;;2.97;;
50671;SDS011;46021;55.882;37.654;2023-08-30T05:25:26;4.35;;;2.58;;
50671;SDS011;46021;55.882;37.654;2023-08-30T05:27:54;8.32;;;3.05;;
50671;SDS011;46021;55.882;37.654;2023-08-30T05:30:21;4.80;;;3.00;;
50671;SDS011;46021;55.882;37.654;2023-08-30T05:32:51;8.45;;;4.68;;
50671;SDS011;46021;55.882;37.654;2023-08-30T05:35:41;4.32;;;2.85;;
50671;SDS011;46021;55.882;37.654;2023-08-30T05:38:28;4.38;;;2.72;;
50671;SDS011;46021;55.882;37.654;2023-08-30T05:41:07;4.47;;;2.75;;
50671;SDS011;46021;55.882;37.654;2023-08-30T05:43:34;4.38;;;2.83;;
50671;SDS011;46021;55.882;37.654;2023-08-30T05:46:02;4.07;;;2.65;;
50671;SDS011;46021;55.882;37.654;2023-08-30T05:48:29;4.20;;;2.67;;
50671;SDS011;46021;55.882;37.654;2023-08-30T05:50:56;4.97;;;2.78;;
50671;SDS011;46021;55.882;37.654;2023-08-30T05:53:23;6.35;;;3.28;;
50671;SDS011;46021;55.882;37.654;2023-08-30T05:55:52;5.70;;;3.33;;
50671;SDS011;46021;55.882;37.654;2023-08-30T05:58:19;5.45;;;2.90;;
50671;SDS011;46021;55.882;37.654;2023-08-30T06:00:46;5.93;;;2.88;;
50671;SDS011;46021;55.882;37.654;2023-08-30T06:03:13;4.60;;;2.90;;
50671;SDS011;46021;55.882;37.654;2023-08-30T06:05:41;6.35;;;3.00;;
50671;SDS011;46021;55.882;37.654;2023-08-30T06:08:08;5.43;;;3.47;;
50671;SDS011;46021;55.882;37.654;2023-08-30T06:10:35;4.55;;;2.70;;
50671;SDS011;46021;55.882;37.654;2023-08-30T06:13:04;4.22;;;2.88;;
50671;SDS011;46021;55.882;37.654;2023-08-30T06:15:31;9.57;;;3.08;;
50671;SDS011;46021;55.882;37.654;2023-08-30T06:17:58;6.70;;;3.10;;
50671;SDS011;46021;55.882;37.654;2023-08-30T06:20:25;5.38;;;2.90;;
50671;SDS011;46021;55.882;37.654;2023-08-30T06:22:52;5.07;;;2.72;;
50671;SDS011;46021;55.882;37.654;2023-08-30T06:25:19;5.53;;;2.80;;
50671;SDS011;46021;55.882;37.654;2023-08-30T06:27:54;4.38;;;2.30;;
50671;SDS011;46021;55.882;37.654;2023-08-30T06:30:24;7.30;;;3.10;;
50671;SDS011;46021;55.882;37.654;2023-08-30T06:32:51;11.75;;;5.90;;
50671;SDS011;46021;55.882;37.654;2023-08-30T06:35:18;8.30;;;4.70;;
50671;SDS011;46021;55.882;37.654;2023-08-30T06:37:45;5.88;;;4.18;;
50671;SDS011;46021;55.882;37.654;2023-08-30T06:40:12;4.78;;;2.88;;
50671;SDS011;46021;55.882;37.654;2023-08-30T06:42:42;4.75;;;3.10;;
50671;SDS011;46021;55.882;37.654;2023-08-30T06:45:10;6.35;;;3.10;;
50671;SDS011;46021;55.882;37.654;2023-08-30T06:47:39;4.20;;;2.58;;
50671;SDS011;46021;55.882;37.654;2023-08-30T06:50:06;5.45;;;3.10;;
50671;SDS011;46021;55.882;37.654;2023-08-30T06:52:35;8.68;;;3.00;;
50671;SDS011;46021;55.882;37.654;2023-08-30T06:55:02;5.20;;;2.83;;
50671;SDS011;46021;55.882;37.654;2023-08-30T06:57:30;5.32;;;2.70;;
50671;SDS011;46021;55.882;37.654;2023-08-30T06:59:57;6.82;;;2.92;;
50671;SDS011;46021;55.882;37.654;2023-08-30T07:02:30;7.10;;;2.78;;
50671;SDS011;46021;55.882;37.654;2023-08-30T07:04:58;7.05;;;2.67;;
50671;SDS011;46021;55.882;37.654;2023-08-30T07:07:25;3.75;;;2.25;;
50671;SDS011;46021;55.882;37.654;2023-08-30T07:09:52;5.38;;;2.70;;
50671;SDS011;46021;55.882;37.654;2023-08-30T07:12:20;6.43;;;2.83;;
50671;SDS011;46021;55.882;37.654;2023-08-30T07:14:47;4.10;;;2.40;;
50671;SDS011;46021;55.882;37.654;2023-08-30T07:17:14;3.72;;;2.13;;
50671;SDS011;46021;55.882;37.654;2023-08-30T07:19:41;4.57;;;2.55;;
50671;SDS011;46021;55.882;37.654;2023-08-30T07:22:09;5.68;;;2.90;;
50671;SDS011;46021;55.882;37.654;2023-08-30T07:24:36;4.28;;;2.50;;
50671;SDS011;46021;55.882;37.654;2023-08-30T07:27:04;4.13;;;2.63;;
50671;SDS011;46021;55.882;37.654;2023-08-30T07:31:58;4.60;;;3.00;;
50671;SDS011;46021;55.882;37.654;2023-08-30T07:34:25;9.35;;;5.20;;
50671;SDS011;46021;55.882;37.654;2023-08-30T07:36:53;4.63;;;2.83;;
50671;SDS011;46021;55.882;37.654;2023-08-30T07:39:22;4.40;;;2.92;;
50671;SDS011;46021;55.882;37.654;2023-08-30T07:41:50;4.72;;;3.00;;
50671;SDS011;46021;55.882;37.654;2023-08-30T07:44:17;3.55;;;2.42;;
50671;SDS011;46021;55.882;37.654;2023-08-30T07:46:46;5.97;;;2.65;;
50671;SDS011;46021;55.882;37.654;2023-08-30T07:49:13;3.58;;;2.00;;
50671;SDS011;46021;55.882;37.654;2023-08-30T07:51:41;3.63;;;2.08;;
50671;SDS011;46021;55.882;37.654;2023-08-30T07:54:08;3.70;;;2.28;;
50671;SDS011;46021;55.882;37.654;2023-08-30T07:59:04;3.83;;;2.50;;
50671;SDS011;46021;55.882;37.654;2023-08-30T08:01:31;8.48;;;2.60;;
50671;SDS011;46021;55.882;37.654;2023-08-30T08:03:58;5.35;;;2.97;;
50671;SDS011;46021;55.882;37.654;2023-08-30T08:06:25;6.03;;;3.00;;
50671;SDS011;46021;55.882;37.654;2023-08-30T08:08:52;4.47;;;2.70;;
50671;SDS011;46021;55.882;37.654;2023-08-30T08:11:19;6.05;;;3.13;;
50671;SDS011;46021;55.882;37.654;2023-08-30T08:13:48;4.15;;;2.75;;
50671;SDS011;46021;55.882;37.654;2023-08-30T08:16:15;4.68;;;2.53;;
50671;SDS011;46021;55.882;37.654;2023-08-30T08:18:42;4.82;;;2.53;;
50671;SDS011;46021;55.882;37.654;2023-08-30T08:21:09;6.30;;;3.10;;
50671;SDS011;46021;55.882;37.654;2023-08-30T08:23:36;4.10;;;2.67;;
50671;SDS011;46021;55.882;37.654;2023-08-30T08:26:03;5.65;;;3.08;;
50671;SDS011;46021;55.882;37.654;2023-08-30T08:28:31;5.47;;;3.15;;
50671;SDS011;46021;55.882;37.654;2023-08-30T08:31:00;5.43;;;2.72;;
50671;SDS011;46021;55.882;37.654;2023-08-30T08:33:32;10.80;;;3.10;;
50671;SDS011;46021;55.882;37.654;2023-08-30T08:35:59;5.88;;;3.10;;
50671;SDS011;46021;55.882;37.654;2023-08-30T08:38:26;7.00;;;3.38;;
50671;SDS011;46021;55.882;37.654;2023-08-30T08:40:53;6.43;;;3.53;;
50671;SDS011;46021;55.882;37.654;2023-08-30T08:43:28;8.27;;;3.42;;
50671;SDS011;46021;55.882;37.654;2023-08-30T08:45:56;5.13;;;3.55;;
50671;SDS011;46021;55.882;37.654;2023-08-30T08:48:28;8.07;;;3.88;;
50671;SDS011;46021;55.882;37.654;2023-08-30T08:50:58;5.07;;;3.10;;
50671;SDS011;46021;55.882;37.654;2023-08-30T08:53:25;6.65;;;3.45;;
50671;SDS011;46021;55.882;37.654;2023-08-30T08:55:53;5.18;;;3.20;;
50671;SDS011;46021;55.882;37.654;2023-08-30T08:58:23;9.20;;;3.70;;
50671;SDS011;46021;55.882;37.654;2023-08-30T09:00:50;8.60;;;3.15;;
50671;SDS011;46021;55.882;37.654;2023-08-30T09:03:20;5.40;;;2.50;;
50671;SDS011;46021;55.882;37.654;2023-08-30T09:05:48;16.25;;;3.10;;
50671;SDS011;46021;55.882;37.654;2023-08-30T09:08:17;5.50;;;2.78;;
50671;SDS011;46021;55.882;37.654;2023-08-30T09:10:44;5.13;;;2.63;;
50671;SDS011;46021;55.882;37.654;2023-08-30T09:13:15;6.10;;;2.55;;
50671;SDS011;46021;55.882;37.654;2023-08-30T09:15:42;4.55;;;2.50;;
50671;SDS011;46021;55.882;37.654;2023-08-30T09:18:14;11.35;;;5.88;;
50671;SDS011;46021;55.882;37.654;2023-08-30T09:20:43;5.43;;;2.53;;
50671;SDS011;46021;55.882;37.654;2023-08-30T09:23:17;7.00;;;2.90;;
50671;SDS011;46021;55.882;37.654;2023-08-30T09:25:46;4.68;;;2.13;;
50671;SDS011;46021;55.882;37.654;2023-08-30T09:28:13;4.97;;;1.85;;
50671;SDS011;46021;55.882;37.654;2023-08-30T09:30:40;4.05;;;1.70;;
50671;SDS011;46021;55.882;37.654;2023-08-30T09:33:07;3.08;;;1.80;;
50671;SDS011;46021;55.882;37.654;2023-08-30T09:38:07;4.18;;;1.85;;
50671;SDS011;46021;55.882;37.654;2023-08-30T09:40:43;5.93;;;1.88;;
50671;SDS011;46021;55.882;37.654;2023-08-30T09:43:10;5.50;;;1.90;;
50671;SDS011;46021;55.882;37.654;2023-08-30T09:45:38;5.43;;;1.58;;
50671;SDS011;46021;55.882;37.654;2023-08-30T09:50:33;5.57;;;2.00;;
50671;SDS011;46021;55.882;37.654;2023-08-30T09:53:01;4.93;;;1.75;;
50671;SDS011;46021;55.882;37.654;2023-08-30T09:55:35;5.47;;;2.10;;
50671;SDS011;46021;55.882;37.654;2023-08-30T10:00:30;4.45;;;2.28;;
50671;SDS011;46021;55.882;37.654;2023-08-30T10:02:59;3.35;;;1.67;;
50671;SDS011;46021;55.882;37.654;2023-08-30T10:05:27;4.47;;;1.90;;
50671;SDS011;46021;55.882;37.654;2023-08-30T10:07:56;3.22;;;1.60;;
50671;SDS011;46021;55.882;37.654;2023-08-30T10:12:51;3.28;;;1.65;;
50671;SDS011;46021;55.882;37.654;2023-08-30T10:15:21;3.03;;;1.60;;
50671;SDS011;46021;55.882;37.654;2023-08-30T10:17:50;2.97;;;1.75;;
50671;SDS011;46021;55.882;37.654;2023-08-30T10:20:20;14.52;;;1.95;;
50671;SDS011;46021;55.882;37.654;2023-08-30T10:22:47;7.70;;;1.80;;
50671;SDS011;46021;55.882;37.654;2023-08-30T10:25:17;2.63;;;1.83;;
50671;SDS011;46021;55.882;37.654;2023-08-30T10:27:49;7.53;;;1.80;;
50671;SDS011;46021;55.882;37.654;2023-08-30T10:30:18;4.53;;;1.38;;
50671;SDS011;46021;55.882;37.654;2023-08-30T10:32:47;3.50;;;2.05;;
50671;SDS011;46021;55.882;37.654;2023-08-30T10:35:15;6.20;;;2.00;;
50671;SDS011;46021;55.882;37.654;2023-08-30T10:37:53;4.53;;;1.95;;
50671;SDS011;46021;55.882;37.654;2023-08-30T10:40:21;3.70;;;1.67;;
50671;SDS011;46021;55.882;37.654;2023-08-30T10:42:59;5.13;;;1.60;;
50671;SDS011;46021;55.882;37.654;2023-08-30T10:45:26;3.15;;;1.63;;
50671;SDS011;46021;55.882;37.654;2023-08-30T10:47:54;8.70;;;4.28;;
50671;SDS011;46021;55.882;37.654;2023-08-30T10:50:27;4.15;;;1.80;;
50671;SDS011;46021;55.882;37.654;2023-08-30T10:52:55;8.00;;;1.80;;
50671;SDS011;46021;55.882;37.654;2023-08-30T10:55:22;3.20;;;2.00;;
50671;SDS011;46021;55.882;37.654;2023-08-30T10:57:59;3.65;;;2.00;;
50671;SDS011;46021;55.882;37.654;2023-08-30T11:00:28;2.85;;;1.50;;
50671;SDS011;46021;55.882;37.654;2023-08-30T11:02:56;3.38;;;1.63;;
50671;SDS011;46021;55.882;37.654;2023-08-30T11:05:23;5.25;;;2.10;;
50671;SDS011;46021;55.882;37.654;2023-08-30T11:07:53;2.20;;;1.60;;
50671;SDS011;46021;55.882;37.654;2023-08-30T11:10:20;4.97;;;2.20;;
50671;SDS011;46021;55.882;37.654;2023-08-30T11:12:48;4.55;;;1.70;;
50671;SDS011;46021;55.882;37.654;2023-08-30T11:15:17;8.93;;;1.50;;
50671;SDS011;46021;55.882;37.654;2023-08-30T11:17:46;2.22;;;1.50;;
50671;SDS011;46021;55.882;37.654;2023-08-30T11:20:13;2.90;;;1.85;;
50671;SDS011;46021;55.882;37.654;2023-08-30T11:22:45;4.97;;;1.65;;
50671;SDS011;46021;55.882;37.654;2023-08-30T11:25:13;3.42;;;1.40;;
50671;SDS011;46021;55.882;37.654;2023-08-30T11:27:41;3.55;;;1.63;;
50671;SDS011;46021;55.882;37.654;2023-08-30T11:30:10;2.75;;;1.33;;
50671;SDS011;46021;55.882;37.654;2023-08-30T11:32:39;2.83;;;1.40;;
50671;SDS011;46021;55.882;37.654;2023-08-30T11:35:08;3.63;;;1.50;;
50671;SDS011;46021;55.882;37.654;2023-08-30T11:37:35;5.97;;;1.85;;
50671;SDS011;46021;55.882;37.654;2023-08-30T11:40:03;2.03;;;1.10;;
50671;SDS011;46021;55.882;37.654;2023-08-30T11:42:33;3.78;;;1.20;;
50671;SDS011;46021;55.882;37.654;2023-08-30T11:45:00;10.30;;;4.80;;
50671;SDS011;46021;55.882;37.654;2023-08-30T11:47:32;3.05;;;1.50;;
50671;SDS011;46021;55.882;37.654;2023-08-30T11:50:01;4.38;;;1.40;;
50671;SDS011;46021;55.882;37.654;2023-08-30T11:52:32;1.52;;;1.17;;
50671;SDS011;46021;55.882;37.654;2023-08-30T11:55:02;3.20;;;1.42;;
50671;SDS011;46021;55.882;37.654;2023-08-30T11:57:32;1.77;;;1.17;;
50671;SDS011;46021;55.882;37.654;2023-08-30T12:00:06;4.82;;;1.38;;
50671;SDS011;46021;55.882;37.654;2023-08-30T12:02:37;5.97;;;1.65;;
50671;SDS011;46021;55.882;37.654;2023-08-30T12:05:09;3.95;;;1.48;;
50671;SDS011;46021;55.882;37.654;2023-08-30T12:07:38;2.50;;;1.52;;
50671;SDS011;46021;55.882;37.654;2023-08-30T12:10:06;2.22;;;1.30;;
50671;SDS011;46021;55.882;37.654;2023-08-30T12:12:34;4.22;;;1.70;;
50671;SDS011;46021;55.882;37.654;2023-08-30T12:15:07;2.38;;;1.50;;
50671;SDS011;46021;55.882;37.654;2023-08-30T12:17:34;2.38;;;1.38;;
50671;SDS011;46021;55.882;37.654;2023-08-30T12:20:02;4.68;;;1.50;;
50671;SDS011;46021;55.882;37.654;2023-08-30T12:22:38;5.30;;;1.60;;
50671;SDS011;46021;55.882;37.654;2023-08-30T12:25:15;4.85;;;1.30;;
50671;SDS011;46021;55.882;37.654;2023-08-30T12:27:45;2.33;;;1.40;;
50671;SDS011;46021;55.882;37.654;2023-08-30T12:30:12;4.60;;;1.33;;
50671;SDS011;46021;55.882;37.654;2023-08-30T12:32:40;3.53;;;1.50;;
50671;SDS011;46021;55.882;37.654;2023-08-30T12:35:07;4.40;;;1.50;;
50671;SDS011;46021;55.882;37.654;2023-08-30T12:37:35;3.15;;;1.50;;
50671;SDS011;46021;55.882;37.654;2023-08-30T12:40:05;2.60;;;1.50;;
50671;SDS011;46021;55.882;37.654;2023-08-30T12:42:32;3.63;;;2.13;;
50671;SDS011;46021;55.882;37.654;2023-08-30T12:45:00;3.95;;;1.52;;
50671;SDS011;46021;55.882;37.654;2023-08-30T12:47:30;2.30;;;1.50;;
50671;SDS011;46021;55.882;37.654;2023-08-30T12:49:57;3.00;;;1.55;;
50671;SDS011;46021;55.882;37.654;2023-08-30T12:52:24;2.42;;;1.58;;
50671;SDS011;46021;55.882;37.654;2023-08-30T12:54:51;2.65;;;1.55;;
50671;SDS011;46021;55.882;37.654;2023-08-30T12:57:21;4.93;;;1.70;;
50671;SDS011;46021;55.882;37.654;2023-08-30T12:59:48;2.85;;;1.60;;
50671;SDS011;46021;55.882;37.654;2023-08-30T13:02:15;3.35;;;1.90;;
50671;SDS011;46021;55.882;37.654;2023-08-30T13:04:42;2.45;;;1.40;;
50671;SDS011;46021;55.882;37.654;2023-08-30T13:09:36;2.53;;;1.50;;
50671;SDS011;46021;55.882;37.654;2023-08-30T13:14:31;7.15;;;2.20;;
50671;SDS011;46021;55.882;37.654;2023-08-30T13:16:58;7.25;;;2.50;;
50671;SDS011;46021;55.882;37.654;2023-08-30T13:21:52;11.05;;;2.55;;
50671;SDS011;46021;55.882;37.654;2023-08-30T13:24:20;5.90;;;2.08;;
50671;SDS011;46021;55.882;37.654;2023-08-30T13:26:47;3.55;;;2.10;;
50671;SDS011;46021;55.882;37.654;2023-08-30T13:29:14;3.05;;;1.70;;
50671;SDS011;46021;55.882;37.654;2023-08-30T13:31:43;5.32;;;1.70;;
50671;SDS011;46021;55.882;37.654;2023-08-30T13:34:10;5.53;;;2.30;;
50671;SDS011;46021;55.882;37.654;2023-08-30T13:36:37;2.88;;;1.70;;
50671;SDS011;46021;55.882;37.654;2023-08-30T13:39:04;3.67;;;1.98;;
50671;SDS011;46021;55.882;37.654;2023-08-30T13:41:31;7.13;;;1.92;;
50671;SDS011;46021;55.882;37.654;2023-08-30T13:43:59;6.88;;;1.90;;
50671;SDS011;46021;55.882;37.654;2023-08-30T13:46:26;6.07;;;2.33;;
50671;SDS011;46021;55.882;37.654;2023-08-30T13:48:55;6.38;;;2.60;;
50671;SDS011;46021;55.882;37.654;2023-08-30T13:51:22;6.75;;;2.90;;
50671;SDS011;46021;55.882;37.654;2023-08-30T13:53:49;5.15;;;2.55;;
50671;SDS011;46021;55.882;37.654;2023-08-30T13:58:44;6.00;;;3.08;;
50671;SDS011;46021;55.882;37.654;2023-08-30T14:01:11;3.90;;;2.55;;
50671;SDS011;46021;55.882;37.654;2023-08-30T14:03:38;4.75;;;2.60;;
50671;SDS011;46021;55.882;37.654;2023-08-30T14:06:07;4.45;;;2.63;;
50671;SDS011;46021;55.882;37.654;2023-08-30T14:08:34;10.43;;;2.50;;
50671;SDS011;46021;55.882;37.654;2023-08-30T14:11:01;5.32;;;2.88;;
50671;SDS011;46021;55.882;37.654;2023-08-30T14:13:29;6.28;;;2.45;;
50671;SDS011;46021;55.882;37.654;2023-08-30T14:15:58;6.15;;;2.92;;
50671;SDS011;46021;55.882;37.654;2023-08-30T14:18:25;16.95;;;8.63;;
50671;SDS011;46021;55.882;37.654;2023-08-30T14:20:55;6.65;;;3.80;;
50671;SDS011;46021;55.882;37.654;2023-08-30T14:23:24;7.70;;;3.30;;
50671;SDS011;46021;55.882;37.654;2023-08-30T14:25:57;5.72;;;2.38;;
50671;SDS011;46021;55.882;37.654;2023-08-30T14:28:25;5.20;;;2.97;;
50671;SDS011;46021;55.882;37.654;2023-08-30T14:30:52;4.22;;;2.75;;
50671;SDS011;46021;55.882;37.654;2023-08-30T14:33:20;5.18;;;2.80;;
50671;SDS011;46021;55.882;37.654;2023-08-30T14:35:47;4.75;;;3.13;;
50671;SDS011;46021;55.882;37.654;2023-08-30T14:38:14;5.05;;;3.22;;
50671;SDS011;46021;55.882;37.654;2023-08-30T14:40:43;6.80;;;2.80;;
50671;SDS011;46021;55.882;37.654;2023-08-30T14:43:10;3.78;;;2.20;;
50671;SDS011;46021;55.882;37.654;2023-08-30T14:45:37;8.23;;;2.83;;
50671;SDS011;46021;55.882;37.654;2023-08-30T14:48:05;3.53;;;2.35;;
50671;SDS011;46021;55.882;37.654;2023-08-30T14:50:33;4.72;;;2.63;;
50671;SDS011;46021;55.882;37.654;2023-08-30T14:53:00;5.75;;;2.53;;
50671;SDS011;46021;55.882;37.654;2023-08-30T14:55:28;5.60;;;3.15;;
50671;SDS011;46021;55.882;37.654;2023-08-30T14:57:56;7.20;;;2.25;;
50671;SDS011;46021;55.882;37.654;2023-08-30T15:00:24;6.78;;;2.80;;
50671;SDS011;46021;55.882;37.654;2023-08-30T15:02:51;4.78;;;2.35;;
50671;SDS011;46021;55.882;37.654;2023-08-30T15:05:18;10.68;;;3.00;;
50671;SDS011;46021;55.882;37.654;2023-08-30T15:07:45;9.25;;;2.90;;
50671;SDS011;46021;55.882;37.654;2023-08-30T15:10:12;6.93;;;2.88;;
50671;SDS011;46021;55.882;37.654;2023-08-30T15:12:41;9.98;;;3.13;;